sensor_id;sensor_type;location;lat;lon;timestamp;pressure;altitude;pressure_sealevel;temperature;humidity
58018;BME280;43810;50.860;19.226;2023-06-04T00:01:35;99121.25;;;4.91;80.20
58018;BME280;43810;50.860;19.226;2023-06-04T00:04:01;99107.59;;;4.84;80.72
58018;BME280;43810;50.860;19.226;2023-06-04T00:06:27;99113.41;;;4.81;81.36
58018;BME280;43810;50.860;19.226;2023-06-04T00:08:52;99102.63;;;4.82;81.16
58018;BME280;43810;50.860;19.226;2023-06-04T00:11:18;99110.50;;;4.82;80.93
58018;BME280;43810;50.860;19.226;2023-06-04T00:13:45;99102.06;;;4.85;80.80
58018;BME280;43810;50.860;19.226;2023-06-04T00:16:11;99108.13;;;4.86;80.25
58018;BME280;43810;50.860;19.226;2023-06-04T00:18:37;99104.47;;;4.82;80.64
58018;BME280;43810;50.860;19.226;2023-06-04T00:21:03;99105.53;;;4.81;81.10
58018;BME280;43810;50.860;19.226;2023-06-04T00:23:28;99107.66;;;4.79;81.79
58018;BME280;43810;50.860;19.226;2023-06-04T00:25:54;99095.06;;;4.76;82.09
58018;BME280;43810;50.860;19.226;2023-06-04T00:28:20;99096.91;;;4.75;82.19
58018;BME280;43810;50.860;19.226;2023-06-04T00:30:47;99099.81;;;4.74;82.67
58018;BME280;43810;50.860;19.226;2023-06-04T00:33:13;99100.06;;;4.72;82.38
58018;BME280;43810;50.860;19.226;2023-06-04T00:35:39;99097.00;;;4.65;82.53
58018;BME280;43810;50.860;19.226;2023-06-04T00:38:04;99105.44;;;4.62;82.78
58018;BME280;43810;50.860;19.226;2023-06-04T00:40:30;99090.69;;;4.61;83.23
58018;BME280;43810;50.860;19.226;2023-06-04T00:42:56;99082.81;;;4.61;83.58
58018;BME280;43810;50.860;19.226;2023-06-04T00:45:23;99090.69;;;4.61;83.29
58018;BME280;43810;50.860;19.226;2023-06-04T00:47:52;99093.13;;;4.57;83.10
58018;BME280;43810;50.860;19.226;2023-06-04T00:50:18;99086.81;;;4.53;83.45
58018;BME280;43810;50.860;19.226;2023-06-04T00:52:47;99087.09;;;4.52;82.83
58018;BME280;43810;50.860;19.226;2023-06-04T00:55:13;99087.13;;;4.47;83.16
58018;BME280;43810;50.860;19.226;2023-06-04T00:57:39;99081.66;;;4.43;82.94
58018;BME280;43810;50.860;19.226;2023-06-04T01:00:05;99089.84;;;4.37;83.04
58018;BME280;43810;50.860;19.226;2023-06-04T01:02:33;99084.56;;;4.37;83.74
58018;BME280;43810;50.860;19.226;2023-06-04T01:07:45;99086.41;;;4.36;83.81
58018;BME280;43810;50.860;19.226;2023-06-04T01:10:14;99086.19;;;4.33;84.29
58018;BME280;43810;50.860;19.226;2023-06-04T01:12:41;99091.72;;;4.31;84.29
58018;BME280;43810;50.860;19.226;2023-06-04T01:15:08;99091.94;;;4.35;84.60
58018;BME280;43810;50.860;19.226;2023-06-04T01:17:39;99086.69;;;4.35;83.88
58018;BME280;43810;50.860;19.226;2023-06-04T01:22:55;99090.69;;;4.32;83.84
58018;BME280;43810;50.860;19.226;2023-06-04T01:25:25;99092.78;;;4.30;84.17
58018;BME280;43810;50.860;19.226;2023-06-04T01:27:56;99085.16;;;4.28;84.14
58018;BME280;43810;50.860;19.226;2023-06-04T01:30:28;99089.41;;;4.24;84.04
58018;BME280;43810;50.860;19.226;2023-06-04T01:32:55;99089.41;;;4.24;84.12
58018;BME280;43810;50.860;19.226;2023-06-04T01:35:22;99095.50;;;4.20;84.33
58018;BME280;43810;50.860;19.226;2023-06-04T01:37:49;99094.19;;;4.17;84.13
58018;BME280;43810;50.860;19.226;2023-06-04T01:40:15;99092.09;;;4.14;83.99
58018;BME280;43810;50.860;19.226;2023-06-04T01:42:41;99090.78;;;4.12;83.67
58018;BME280;43810;50.860;19.226;2023-06-04T01:45:08;99090.06;;;4.06;83.65
58018;BME280;43810;50.860;19.226;2023-06-04T01:47:34;99084.81;;;4.01;84.68
58018;BME280;43810;50.860;19.226;2023-06-04T01:50:01;99095.34;;;4.01;85.13
58018;BME280;43810;50.860;19.226;2023-06-04T01:52:27;99081.69;;;3.99;85.11
58018;BME280;43810;50.860;19.226;2023-06-04T01:54:53;99089.06;;;3.97;84.98
58018;BME280;43810;50.860;19.226;2023-06-04T01:57:20;99085.66;;;3.97;85.36
58018;BME280;43810;50.860;19.226;2023-06-04T01:59:46;99084.34;;;3.94;85.40
58018;BME280;43810;50.860;19.226;2023-06-04T02:02:13;99089.09;;;3.92;85.72
58018;BME280;43810;50.860;19.226;2023-06-04T02:04:39;99080.66;;;3.95;85.77
58018;BME280;43810;50.860;19.226;2023-06-04T02:07:10;99083.81;;;3.92;85.49
58018;BME280;43810;50.860;19.226;2023-06-04T02:09:37;99086.19;;;3.88;85.76
58018;BME280;43810;50.860;19.226;2023-06-04T02:12:03;99080.19;;;3.88;86.10
58018;BME280;43810;50.860;19.226;2023-06-04T02:14:29;99085.44;;;3.88;86.40
58018;BME280;43810;50.860;19.226;2023-06-04T02:16:55;99086.50;;;3.87;86.50
58018;BME280;43810;50.860;19.226;2023-06-04T02:19:24;99078.31;;;3.88;86.63
58018;BME280;43810;50.860;19.226;2023-06-04T02:21:52;99091.75;;;3.87;86.50
58018;BME280;43810;50.860;19.226;2023-06-04T02:24:18;99089.13;;;3.87;86.51
58018;BME280;43810;50.860;19.226;2023-06-04T02:26:43;99083.31;;;3.90;85.84
58018;BME280;43810;50.860;19.226;2023-06-04T02:29:10;99085.66;;;3.91;85.91
58018;BME280;43810;50.860;19.226;2023-06-04T02:31:35;99086.97;;;3.94;85.78
58018;BME280;43810;50.860;19.226;2023-06-04T02:34:02;99083.81;;;3.92;85.25
58018;BME280;43810;50.860;19.226;2023-06-04T02:36:29;99086.50;;;3.87;85.33
58018;BME280;43810;50.860;19.226;2023-06-04T02:38:55;99086.50;;;3.82;85.87
58018;BME280;43810;50.860;19.226;2023-06-04T02:41:21;99084.41;;;3.79;86.23
58018;BME280;43810;50.860;19.226;2023-06-04T02:43:47;99081.78;;;3.79;86.46
58018;BME280;43810;50.860;19.226;2023-06-04T02:46:13;99083.38;;;3.80;86.54
58018;BME280;43810;50.860;19.226;2023-06-04T02:48:39;99080.72;;;3.85;86.41
58018;BME280;43810;50.860;19.226;2023-06-04T02:51:04;99089.13;;;3.87;86.84
58018;BME280;43810;50.860;19.226;2023-06-04T02:53:31;99089.34;;;3.90;86.42
58018;BME280;43810;50.860;19.226;2023-06-04T02:55:56;99075.94;;;3.92;86.68
58018;BME280;43810;50.860;19.226;2023-06-04T02:58:25;99091.97;;;3.96;86.58
58018;BME280;43810;50.860;19.226;2023-06-04T03:00:55;99089.84;;;3.98;86.78
58018;BME280;43810;50.860;19.226;2023-06-04T03:03:21;99091.44;;;3.99;86.80
58018;BME280;43810;50.860;19.226;2023-06-04T03:05:47;99091.38;;;4.04;87.09
58018;BME280;43810;50.860;19.226;2023-06-04T03:08:13;99089.53;;;4.04;86.82
58018;BME280;43810;50.860;19.226;2023-06-04T03:10:39;99091.88;;;4.11;87.13
58018;BME280;43810;50.860;19.226;2023-06-04T03:13:05;99092.63;;;4.16;87.24
58018;BME280;43810;50.860;19.226;2023-06-04T03:15:31;99096.47;;;4.29;87.05
58018;BME280;43810;50.860;19.226;2023-06-04T03:17:57;99098.00;;;4.35;86.83
58018;BME280;43810;50.860;19.226;2023-06-04T03:20:23;99096.41;;;4.39;86.64
58018;BME280;43810;50.860;19.226;2023-06-04T03:22:51;99100.00;;;4.48;86.71
58018;BME280;43810;50.860;19.226;2023-06-04T03:25:16;99093.88;;;4.58;86.34
58018;BME280;43810;50.860;19.226;2023-06-04T03:27:42;99084.63;;;4.66;86.41
58018;BME280;43810;50.860;19.226;2023-06-04T03:30:09;99099.00;;;4.78;86.27
58018;BME280;43810;50.860;19.226;2023-06-04T03:32:35;99092.06;;;4.87;86.47
58018;BME280;43810;50.860;19.226;2023-06-04T03:35:01;99091.41;;;5.00;86.14
58018;BME280;43810;50.860;19.226;2023-06-04T03:37:28;99094.94;;;5.15;85.97
58018;BME280;43810;50.860;19.226;2023-06-04T03:39:54;99092.69;;;5.27;86.33
58018;BME280;43810;50.860;19.226;2023-06-04T03:42:20;99079.34;;;5.42;86.05
58018;BME280;43810;50.860;19.226;2023-06-04T03:44:46;99089.63;;;5.62;85.97
58018;BME280;43810;50.860;19.226;2023-06-04T03:47:12;99090.41;;;6.05;84.93
58018;BME280;43810;50.860;19.226;2023-06-04T03:49:38;99099.69;;;6.54;82.84
58018;BME280;43810;50.860;19.226;2023-06-04T03:52:04;99091.50;;;7.02;80.62
58018;BME280;43810;50.860;19.226;2023-06-04T03:54:29;99097.69;;;7.52;78.60
58018;BME280;43810;50.860;19.226;2023-06-04T03:56:56;99096.56;;;7.94;76.44
58018;BME280;43810;50.860;19.226;2023-06-04T03:59:22;99103.22;;;8.27;74.79
58018;BME280;43810;50.860;19.226;2023-06-04T04:01:48;99093.34;;;8.64;73.81
58018;BME280;43810;50.860;19.226;2023-06-04T04:04:13;99104.94;;;8.99;72.42
58018;BME280;43810;50.860;19.226;2023-06-04T04:06:40;99104.44;;;9.28;70.84
58018;BME280;43810;50.860;19.226;2023-06-04T04:09:06;99109.13;;;9.62;70.41
58018;BME280;43810;50.860;19.226;2023-06-04T04:11:32;99103.22;;;9.82;69.06
58018;BME280;43810;50.860;19.226;2023-06-04T04:13:58;99102.00;;;10.14;67.73
58018;BME280;43810;50.860;19.226;2023-06-04T04:16:24;99111.38;;;10.29;67.14
58018;BME280;43810;50.860;19.226;2023-06-04T04:18:50;99095.59;;;10.41;66.85
58018;BME280;43810;50.860;19.226;2023-06-04T04:21:16;99104.63;;;10.66;66.13
58018;BME280;43810;50.860;19.226;2023-06-04T04:23:44;99096.16;;;10.81;65.53
58018;BME280;43810;50.860;19.226;2023-06-04T04:26:11;99096.63;;;10.92;65.43
58018;BME280;43810;50.860;19.226;2023-06-04T04:28:36;99101.25;;;11.12;64.45
58018;BME280;43810;50.860;19.226;2023-06-04T04:31:03;99103.56;;;11.22;64.10
58018;BME280;43810;50.860;19.226;2023-06-04T04:33:29;99101.03;;;11.34;64.90
58018;BME280;43810;50.860;19.226;2023-06-04T04:35:58;99099.09;;;11.43;63.70
58018;BME280;43810;50.860;19.226;2023-06-04T04:38:27;99095.81;;;11.46;62.52
58018;BME280;43810;50.860;19.226;2023-06-04T04:40:55;99095.91;;;11.50;62.75
58018;BME280;43810;50.860;19.226;2023-06-04T04:43:34;99100.53;;;11.70;62.84
58018;BME280;43810;50.860;19.226;2023-06-04T04:46:00;99097.34;;;11.77;63.10
58018;BME280;43810;50.860;19.226;2023-06-04T04:48:26;99088.34;;;11.90;61.77
58018;BME280;43810;50.860;19.226;2023-06-04T04:50:53;99104.63;;;12.09;61.65
58018;BME280;43810;50.860;19.226;2023-06-04T04:53:19;99099.50;;;12.25;61.99
58018;BME280;43810;50.860;19.226;2023-06-04T04:55:45;99095.44;;;12.28;61.68
58018;BME280;43810;50.860;19.226;2023-06-04T04:58:12;99088.50;;;12.47;60.94
58018;BME280;43810;50.860;19.226;2023-06-04T05:00:38;99095.06;;;12.50;61.57
58018;BME280;43810;50.860;19.226;2023-06-04T05:03:04;99100.22;;;12.67;60.83
58018;BME280;43810;50.860;19.226;2023-06-04T05:05:32;99095.63;;;12.88;59.99
58018;BME280;43810;50.860;19.226;2023-06-04T05:07:57;99089.56;;;13.00;61.64
58018;BME280;43810;50.860;19.226;2023-06-04T05:10:24;99095.34;;;13.14;59.45
58018;BME280;43810;50.860;19.226;2023-06-04T05:12:53;99096.16;;;13.39;58.75
58018;BME280;43810;50.860;19.226;2023-06-04T05:15:20;99099.03;;;13.58;59.37
58018;BME280;43810;50.860;19.226;2023-06-04T05:17:46;99100.06;;;13.54;59.66
58018;BME280;43810;50.860;19.226;2023-06-04T05:20:13;99104.28;;;13.55;58.53
58018;BME280;43810;50.860;19.226;2023-06-04T05:22:39;99097.56;;;13.85;58.00
58018;BME280;43810;50.860;19.226;2023-06-04T05:25:05;99099.91;;;13.87;58.71
58018;BME280;43810;50.860;19.226;2023-06-04T05:27:32;99102.00;;;13.93;57.75
58018;BME280;43810;50.860;19.226;2023-06-04T05:29:58;99101.81;;;13.86;57.23
58018;BME280;43810;50.860;19.226;2023-06-04T05:32:24;99094.97;;;14.13;57.74
58018;BME280;43810;50.860;19.226;2023-06-04T05:34:54;99101.84;;;14.26;55.74
58018;BME280;43810;50.860;19.226;2023-06-04T05:37:26;99099.94;;;14.27;55.73
58018;BME280;43810;50.860;19.226;2023-06-04T05:39:55;99103.78;;;14.69;56.17
58018;BME280;43810;50.860;19.226;2023-06-04T05:42:22;99101.41;;;14.80;55.56
58018;BME280;43810;50.860;19.226;2023-06-04T05:44:48;99105.78;;;14.88;55.75
58018;BME280;43810;50.860;19.226;2023-06-04T05:47:15;99097.81;;;15.04;54.99
58018;BME280;43810;50.860;19.226;2023-06-04T05:49:42;99104.38;;;15.06;54.58
58018;BME280;43810;50.860;19.226;2023-06-04T05:52:08;99097.44;;;15.21;54.15
58018;BME280;43810;50.860;19.226;2023-06-04T05:54:34;99109.66;;;15.50;55.27
58018;BME280;43810;50.860;19.226;2023-06-04T05:57:00;99101.09;;;15.60;52.29
58018;BME280;43810;50.860;19.226;2023-06-04T05:59:26;99101.91;;;15.80;52.32
58018;BME280;43810;50.860;19.226;2023-06-04T06:01:52;99111.06;;;15.79;51.70
58018;BME280;43810;50.860;19.226;2023-06-04T06:04:18;99116.72;;;15.58;52.95
58018;BME280;43810;50.860;19.226;2023-06-04T06:06:43;99105.66;;;15.95;51.97
58018;BME280;43810;50.860;19.226;2023-06-04T06:09:10;99106.66;;;16.06;52.32
58018;BME280;43810;50.860;19.226;2023-06-04T06:11:36;99101.34;;;15.90;52.11
58018;BME280;43810;50.860;19.226;2023-06-04T06:14:02;99110.28;;;16.13;50.52
58018;BME280;43810;50.860;19.226;2023-06-04T06:16:28;99111.53;;;16.00;50.63
58018;BME280;43810;50.860;19.226;2023-06-04T06:18:54;99114.81;;;16.09;50.67
58018;BME280;43810;50.860;19.226;2023-06-04T06:21:20;99114.50;;;15.95;51.38
58018;BME280;43810;50.860;19.226;2023-06-04T06:23:46;99122.84;;;16.09;51.44
58018;BME280;43810;50.860;19.226;2023-06-04T06:26:12;99123.66;;;16.68;50.66
58018;BME280;43810;50.860;19.226;2023-06-04T06:28:38;99120.59;;;16.88;50.72
58018;BME280;43810;50.860;19.226;2023-06-04T06:31:04;99120.69;;;16.96;49.94
58018;BME280;43810;50.860;19.226;2023-06-04T06:33:31;99124.53;;;17.17;49.13
58018;BME280;43810;50.860;19.226;2023-06-04T06:35:57;99125.44;;;16.83;48.71
58018;BME280;43810;50.860;19.226;2023-06-04T06:38:26;99120.97;;;16.68;50.91
58018;BME280;43810;50.860;19.226;2023-06-04T06:40:52;99125.22;;;16.69;48.25
58018;BME280;43810;50.860;19.226;2023-06-04T06:43:18;99118.06;;;16.76;50.19
58018;BME280;43810;50.860;19.226;2023-06-04T06:45:44;99121.63;;;17.26;47.63
58018;BME280;43810;50.860;19.226;2023-06-04T06:48:10;99128.50;;;17.27;46.06
58018;BME280;43810;50.860;19.226;2023-06-04T06:50:36;99127.00;;;17.75;48.45
58018;BME280;43810;50.860;19.226;2023-06-04T06:53:04;99128.63;;;17.80;46.51
58018;BME280;43810;50.860;19.226;2023-06-04T06:55:30;99129.19;;;17.92;45.25
58018;BME280;43810;50.860;19.226;2023-06-04T06:57:56;99139.56;;;17.94;45.11
58018;BME280;43810;50.860;19.226;2023-06-04T07:00:22;99127.84;;;17.56;44.80
58018;BME280;43810;50.860;19.226;2023-06-04T07:02:48;99134.78;;;17.57;45.95
58018;BME280;43810;50.860;19.226;2023-06-04T07:05:14;99134.34;;;17.78;46.35
58018;BME280;43810;50.860;19.226;2023-06-04T07:07:43;99134.03;;;17.83;43.47
58018;BME280;43810;50.860;19.226;2023-06-04T07:10:09;99129.97;;;17.96;45.51
58018;BME280;43810;50.860;19.226;2023-06-04T07:12:35;99136.28;;;18.67;46.05
58018;BME280;43810;50.860;19.226;2023-06-04T07:15:01;99131.63;;;19.01;44.43
58018;BME280;43810;50.860;19.226;2023-06-04T07:17:27;99134.53;;;19.23;42.15
58018;BME280;43810;50.860;19.226;2023-06-04T07:19:53;99136.22;;;19.01;42.46
58018;BME280;43810;50.860;19.226;2023-06-04T07:22:19;99139.28;;;18.96;44.01
58018;BME280;43810;50.860;19.226;2023-06-04T07:24:45;99122.31;;;19.32;42.40
58018;BME280;43810;50.860;19.226;2023-06-04T07:27:15;99126.91;;;19.35;42.15
58018;BME280;43810;50.860;19.226;2023-06-04T07:29:43;99129.28;;;19.00;41.93
58018;BME280;43810;50.860;19.226;2023-06-04T07:32:10;99126.50;;;19.30;42.00
58018;BME280;43810;50.860;19.226;2023-06-04T07:34:38;99121.25;;;19.48;39.80
58018;BME280;43810;50.860;19.226;2023-06-04T07:37:05;99125.22;;;19.61;39.30
58018;BME280;43810;50.860;19.226;2023-06-04T07:39:31;99123.06;;;19.33;38.04
58018;BME280;43810;50.860;19.226;2023-06-04T07:41:57;99126.19;;;19.38;40.93
58018;BME280;43810;50.860;19.226;2023-06-04T07:44:22;99125.38;;;19.82;39.49
58018;BME280;43810;50.860;19.226;2023-06-04T07:46:48;99126.34;;;20.14;39.35
58018;BME280;43810;50.860;19.226;2023-06-04T07:49:14;99118.25;;;20.18;38.17
58018;BME280;43810;50.860;19.226;2023-06-04T07:51:41;99120.38;;;20.64;38.75
58018;BME280;43810;50.860;19.226;2023-06-04T07:54:07;99124.25;;;20.66;41.02
58018;BME280;43810;50.860;19.226;2023-06-04T07:56:33;99113.03;;;20.57;38.27
58018;BME280;43810;50.860;19.226;2023-06-04T07:58:59;99115.66;;;20.46;38.79
58018;BME280;43810;50.860;19.226;2023-06-04T08:01:24;99121.16;;;20.68;39.76
58018;BME280;43810;50.860;19.226;2023-06-04T08:03:50;99109.63;;;20.81;35.53
58018;BME280;43810;50.860;19.226;2023-06-04T08:06:16;99108.06;;;20.80;39.01
58018;BME280;43810;50.860;19.226;2023-06-04T08:08:45;99114.25;;;20.81;35.72
58018;BME280;43810;50.860;19.226;2023-06-04T08:11:14;99108.38;;;20.54;35.68
58018;BME280;43810;50.860;19.226;2023-06-04T08:13:40;99114.97;;;20.60;37.75
58018;BME280;43810;50.860;19.226;2023-06-04T08:16:07;99111.13;;;20.68;36.62
58018;BME280;43810;50.860;19.226;2023-06-04T08:18:37;99122.31;;;20.67;35.63
58018;BME280;43810;50.860;19.226;2023-06-04T08:21:03;99124.31;;;20.95;36.60
58018;BME280;43810;50.860;19.226;2023-06-04T08:23:29;99119.31;;;21.21;33.96
58018;BME280;43810;50.860;19.226;2023-06-04T08:25:55;99126.69;;;21.39;33.92
58018;BME280;43810;50.860;19.226;2023-06-04T08:28:21;99117.41;;;21.29;36.42
58018;BME280;43810;50.860;19.226;2023-06-04T08:30:47;99112.38;;;21.45;38.36
58018;BME280;43810;50.860;19.226;2023-06-04T08:33:13;99116.97;;;21.84;34.96
58018;BME280;43810;50.860;19.226;2023-06-04T08:35:39;99113.50;;;21.87;36.30
58018;BME280;43810;50.860;19.226;2023-06-04T08:38:04;99110.06;;;21.26;34.87
58018;BME280;43810;50.860;19.226;2023-06-04T08:40:31;99115.84;;;21.56;34.33
58018;BME280;43810;50.860;19.226;2023-06-04T08:42:56;99121.66;;;21.48;35.08
58018;BME280;43810;50.860;19.226;2023-06-04T08:45:25;99113.53;;;21.58;36.54
58018;BME280;43810;50.860;19.226;2023-06-04T08:47:52;99121.56;;;22.08;34.20
58018;BME280;43810;50.860;19.226;2023-06-04T08:50:20;99123.97;;;21.71;36.81
58018;BME280;43810;50.860;19.226;2023-06-04T08:52:47;99126.28;;;21.37;38.11
58018;BME280;43810;50.860;19.226;2023-06-04T08:55:14;99120.84;;;21.05;35.29
58018;BME280;43810;50.860;19.226;2023-06-04T08:57:40;99120.09;;;21.33;33.63
58018;BME280;43810;50.860;19.226;2023-06-04T09:00:07;99128.56;;;21.77;35.21
58018;BME280;43810;50.860;19.226;2023-06-04T09:02:36;99129.38;;;21.49;37.19
58018;BME280;43810;50.860;19.226;2023-06-04T09:05:06;99135.19;;;21.51;36.02
58018;BME280;43810;50.860;19.226;2023-06-04T09:07:39;99132.03;;;21.99;36.78
58018;BME280;43810;50.860;19.226;2023-06-04T09:10:07;99131.59;;;22.22;33.26
58018;BME280;43810;50.860;19.226;2023-06-04T09:12:36;99136.25;;;22.11;35.31
58018;BME280;43810;50.860;19.226;2023-06-04T09:15:06;99140.41;;;22.40;33.93
58018;BME280;43810;50.860;19.226;2023-06-04T09:17:32;99133.09;;;22.34;32.32
58018;BME280;43810;50.860;19.226;2023-06-04T09:19:58;99137.41;;;22.93;34.61
58018;BME280;43810;50.860;19.226;2023-06-04T09:22:33;99131.56;;;23.09;33.61
58018;BME280;43810;50.860;19.226;2023-06-04T09:24:59;99136.19;;;23.60;33.20
58018;BME280;43810;50.860;19.226;2023-06-04T09:27:25;99129.22;;;23.11;31.39
58018;BME280;43810;50.860;19.226;2023-06-04T09:29:57;99122.81;;;22.80;31.58
58018;BME280;43810;50.860;19.226;2023-06-04T09:32:29;99129.88;;;22.63;32.07
58018;BME280;43810;50.860;19.226;2023-06-04T09:34:56;99125.22;;;22.64;35.14
58018;BME280;43810;50.860;19.226;2023-06-04T09:37:34;99130.25;;;22.62;35.66
58018;BME280;43810;50.860;19.226;2023-06-04T09:40:00;99118.63;;;22.68;32.42
58018;BME280;43810;50.860;19.226;2023-06-04T09:42:26;99123.22;;;22.79;33.03
58018;BME280;43810;50.860;19.226;2023-06-04T09:44:52;99116.91;;;22.92;31.34
58018;BME280;43810;50.860;19.226;2023-06-04T09:47:18;99121.41;;;22.51;31.35
58018;BME280;43810;50.860;19.226;2023-06-04T09:49:45;99120.44;;;22.86;30.10
58018;BME280;43810;50.860;19.226;2023-06-04T09:52:12;99115.94;;;22.65;31.67
58018;BME280;43810;50.860;19.226;2023-06-04T09:54:40;99099.47;;;23.00;32.12
58018;BME280;43810;50.860;19.226;2023-06-04T09:57:17;99108.63;;;23.62;33.98
58018;BME280;43810;50.860;19.226;2023-06-04T09:59:45;99117.13;;;23.23;33.65
58018;BME280;43810;50.860;19.226;2023-06-04T10:02:19;99118.06;;;22.98;30.92
58018;BME280;43810;50.860;19.226;2023-06-04T10:04:49;99113.41;;;22.95;34.57
58018;BME280;43810;50.860;19.226;2023-06-04T10:07:18;99106.38;;;23.09;33.67
58018;BME280;43810;50.860;19.226;2023-06-04T10:09:45;99113.63;;;23.26;31.20
58018;BME280;43810;50.860;19.226;2023-06-04T10:12:14;99108.59;;;23.24;31.37
58018;BME280;43810;50.860;19.226;2023-06-04T10:14:52;99110.50;;;23.27;35.35
58018;BME280;43810;50.860;19.226;2023-06-04T10:17:23;99112.97;;;23.08;30.52
58018;BME280;43810;50.860;19.226;2023-06-04T10:19:51;99114.31;;;23.37;30.65
58018;BME280;43810;50.860;19.226;2023-06-04T10:22:20;99108.81;;;23.44;31.80
58018;BME280;43810;50.860;19.226;2023-06-04T10:24:47;99103.19;;;23.65;30.17
58018;BME280;43810;50.860;19.226;2023-06-04T10:27:12;99106.41;;;23.94;28.28
58018;BME280;43810;50.860;19.226;2023-06-04T10:29:39;99105.25;;;24.29;31.69
58018;BME280;43810;50.860;19.226;2023-06-04T10:32:05;99090.94;;;24.25;29.93
58018;BME280;43810;50.860;19.226;2023-06-04T10:34:34;99103.38;;;23.89;31.98
58018;BME280;43810;50.860;19.226;2023-06-04T10:37:00;99105.19;;;23.99;31.61
58018;BME280;43810;50.860;19.226;2023-06-04T10:39:29;99104.47;;;23.50;32.73
58018;BME280;43810;50.860;19.226;2023-06-04T10:42:02;99092.91;;;23.50;31.18
58018;BME280;43810;50.860;19.226;2023-06-04T10:44:46;99101.16;;;23.32;32.40
58018;BME280;43810;50.860;19.226;2023-06-04T10:47:38;99106.56;;;23.35;30.65
58018;BME280;43810;50.860;19.226;2023-06-04T10:50:10;99097.84;;;23.58;32.47
58018;BME280;43810;50.860;19.226;2023-06-04T10:52:37;99101.94;;;23.73;33.07
58018;BME280;43810;50.860;19.226;2023-06-04T10:55:05;99095.06;;;23.65;30.64
58018;BME280;43810;50.860;19.226;2023-06-04T10:57:32;99096.97;;;23.68;29.47
58018;BME280;43810;50.860;19.226;2023-06-04T11:00:00;99094.06;;;23.90;34.90
58018;BME280;43810;50.860;19.226;2023-06-04T11:02:26;99096.97;;;23.68;32.59
58018;BME280;43810;50.860;19.226;2023-06-04T11:05:02;99086.44;;;23.78;30.99
58018;BME280;43810;50.860;19.226;2023-06-04T11:07:42;99082.59;;;24.09;30.15
58018;BME280;43810;50.860;19.226;2023-06-04T11:10:10;99088.75;;;24.13;28.90
58018;BME280;43810;50.860;19.226;2023-06-04T11:12:47;99079.25;;;24.59;31.05
58018;BME280;43810;50.860;19.226;2023-06-04T11:15:14;99085.25;;;24.43;29.98
58018;BME280;43810;50.860;19.226;2023-06-04T11:17:56;99083.88;;;24.89;30.68
58018;BME280;43810;50.860;19.226;2023-06-04T11:20:25;99080.41;;;25.11;30.60
58018;BME280;43810;50.860;19.226;2023-06-04T11:23:00;99095.44;;;24.66;26.79
58018;BME280;43810;50.860;19.226;2023-06-04T11:25:29;99091.91;;;24.08;29.03
58018;BME280;43810;50.860;19.226;2023-06-04T11:27:59;99090.88;;;23.57;29.20
58018;BME280;43810;50.860;19.226;2023-06-04T11:30:27;99093.09;;;23.69;29.84
58018;BME280;43810;50.860;19.226;2023-06-04T11:33:00;99082.81;;;23.88;28.79
58018;BME280;43810;50.860;19.226;2023-06-04T11:35:27;99083.19;;;23.90;30.13
58018;BME280;43810;50.860;19.226;2023-06-04T11:37:54;99088.25;;;23.88;29.62
58018;BME280;43810;50.860;19.226;2023-06-04T11:40:20;99088.63;;;23.90;30.81
58018;BME280;43810;50.860;19.226;2023-06-04T11:42:47;99085.84;;;23.56;31.57
58018;BME280;43810;50.860;19.226;2023-06-04T11:45:14;99090.88;;;23.57;31.51
58018;BME280;43810;50.860;19.226;2023-06-04T11:47:55;99067.03;;;24.13;29.87
58018;BME280;43810;50.860;19.226;2023-06-04T11:50:22;99075.13;;;24.51;28.30
58018;BME280;43810;50.860;19.226;2023-06-04T11:52:49;99079.91;;;24.66;28.42
58018;BME280;43810;50.860;19.226;2023-06-04T11:55:15;99078.81;;;24.64;28.28
58018;BME280;43810;50.860;19.226;2023-06-04T11:57:46;99061.91;;;24.53;27.31
58018;BME280;43810;50.860;19.226;2023-06-04T12:00:13;99065.69;;;24.28;28.57
58018;BME280;43810;50.860;19.226;2023-06-04T12:02:49;99066.50;;;24.25;27.94
58018;BME280;43810;50.860;19.226;2023-06-04T12:05:17;99071.59;;;24.20;31.83
58018;BME280;43810;50.860;19.226;2023-06-04T12:07:52;99081.34;;;24.47;30.36
58018;BME280;43810;50.860;19.226;2023-06-04T12:10:19;99066.69;;;24.95;29.83
58018;BME280;43810;50.860;19.226;2023-06-04T12:12:46;99069.13;;;24.63;27.86
58018;BME280;43810;50.860;19.226;2023-06-04T12:15:18;99062.31;;;25.01;30.26
58018;BME280;43810;50.860;19.226;2023-06-04T12:17:54;99066.16;;;25.04;27.86
58018;BME280;43810;50.860;19.226;2023-06-04T12:20:40;99066.34;;;25.16;26.71
58018;BME280;43810;50.860;19.226;2023-06-04T12:23:07;99067.56;;;25.12;29.86
58018;BME280;43810;50.860;19.226;2023-06-04T12:25:34;99067.53;;;25.15;28.63
58018;BME280;43810;50.860;19.226;2023-06-04T12:28:00;99072.59;;;24.90;27.45
58018;BME280;43810;50.860;19.226;2023-06-04T12:30:38;99061.44;;;25.54;27.99
58018;BME280;43810;50.860;19.226;2023-06-04T12:33:04;99065.91;;;26.44;25.24
58018;BME280;43810;50.860;19.226;2023-06-04T12:35:30;99059.75;;;27.24;23.48
58018;BME280;43810;50.860;19.226;2023-06-04T12:37:56;99060.53;;;26.76;26.34
58018;BME280;43810;50.860;19.226;2023-06-04T12:40:22;99063.25;;;26.76;28.70
58018;BME280;43810;50.860;19.226;2023-06-04T12:42:50;99066.78;;;26.57;26.68
58018;BME280;43810;50.860;19.226;2023-06-04T12:45:16;99071.34;;;26.64;27.20
58018;BME280;43810;50.860;19.226;2023-06-04T12:47:43;99071.25;;;27.64;25.11
58018;BME280;43810;50.860;19.226;2023-06-04T12:50:09;99065.88;;;28.44;26.98
58018;BME280;43810;50.860;19.226;2023-06-04T12:52:36;99054.53;;;28.84;24.30
58018;BME280;43810;50.860;19.226;2023-06-04T12:55:02;99058.00;;;28.21;24.37
58018;BME280;43810;50.860;19.226;2023-06-04T12:57:27;99048.91;;;28.36;22.78
58018;BME280;43810;50.860;19.226;2023-06-04T12:59:53;99063.09;;;27.48;25.77